createdAt,value
2018-11-10T00:00:20.349Z,9.86
2018-11-10T00:02:49.857Z,9.89
2018-11-10T00:05:20.577Z,9.84
2018-11-10T00:07:49.264Z,9.85
2018-11-10T00:10:19.754Z,9.83
2018-11-10T00:12:48.951Z,9.86
2018-11-10T00:15:17.625Z,9.88
2018-11-10T00:17:46.511Z,9.93
2018-11-10T00:20:15.172Z,9.88
2018-11-10T00:22:51.803Z,9.90
2018-11-10T00:25:20.464Z,9.94
2018-11-10T00:27:49.365Z,9.97
2018-11-10T00:30:23.280Z,9.89
2018-11-10T00:32:52.458Z,9.98
2018-11-10T00:35:21.095Z,9.95
2018-11-10T00:37:51.897Z,9.89
2018-11-10T00:40:21.904Z,9.84
2018-11-10T00:42:51.628Z,9.86
2018-11-10T00:45:20.287Z,9.88
2018-11-10T00:47:48.951Z,9.85
2018-11-10T00:50:18.460Z,9.84
2018-11-10T00:52:47.138Z,9.90
2018-11-10T00:55:15.800Z,9.83
2018-11-10T00:57:44.447Z,9.80
2018-11-10T01:00:13.808Z,9.83
2018-11-10T01:02:45.245Z,9.78
2018-11-10T01:05:14.913Z,9.79
2018-11-10T01:07:44.038Z,9.77
2018-11-10T01:10:13.950Z,9.81
2018-11-10T01:12:43.033Z,9.82
2018-11-10T01:15:14.667Z,9.80
2018-11-10T01:17:43.786Z,9.76
2018-11-10T01:20:12.865Z,9.84
2018-11-10T01:22:42.792Z,9.80
2018-11-10T01:25:12.182Z,9.79
2018-11-10T01:27:40.976Z,9.81
2018-11-10T01:30:12.212Z,9.77
2018-11-10T01:32:41.163Z,9.76
2018-11-10T01:35:09.892Z,9.79
2018-11-10T01:37:41.438Z,9.76
2018-11-10T01:40:11.296Z,9.71
2018-11-10T01:42:40.331Z,9.71
2018-11-10T01:45:14.829Z,9.79
2018-11-10T01:47:44.903Z,9.79
2018-11-10T01:50:14.488Z,9.76
2018-11-10T01:52:44.395Z,9.83
2018-11-10T01:55:13.228Z,9.76
2018-11-10T01:57:43.710Z,9.79
2018-11-10T02:00:15.464Z,9.85
2018-11-10T02:02:44.833Z,9.90
2018-11-10T02:05:15.688Z,9.83
2018-11-10T02:07:45.191Z,9.90
2018-11-10T02:10:15.483Z,9.80
2018-11-10T02:12:44.165Z,9.78
2018-11-10T02:15:18.476Z,9.74
2018-11-10T02:17:47.276Z,9.79
2018-11-10T02:20:16.711Z,9.66
2018-11-10T02:22:45.813Z,9.70
2018-11-10T02:25:15.033Z,9.71
2018-11-10T02:27:43.739Z,9.65
2018-11-10T02:30:15.079Z,9.64
2018-11-10T02:32:44.241Z,9.64
2018-11-10T02:35:13.713Z,9.72
2018-11-10T02:37:42.404Z,9.70
2018-11-10T02:40:14.826Z,9.60
2018-11-10T02:42:45.639Z,9.64
2018-11-10T02:45:15.380Z,9.62
2018-11-10T02:47:46.063Z,9.62
2018-11-10T02:50:14.707Z,9.66
2018-11-10T02:52:43.374Z,9.61
2018-11-10T02:55:12.273Z,9.64
2018-11-10T02:57:41.344Z,9.61
2018-11-10T03:00:11.257Z,9.63
2018-11-10T03:02:40.702Z,9.64
2018-11-10T03:05:09.985Z,9.59
2018-11-10T03:07:39.031Z,9.60
2018-11-10T03:10:08.820Z,9.60
2018-11-10T03:12:38.477Z,9.59
2018-11-10T03:15:08.148Z,9.60
2018-11-10T03:17:37.191Z,9.52
2018-11-10T03:20:07.980Z,9.54
2018-11-10T03:22:37.975Z,9.53
2018-11-10T03:25:07.940Z,9.55
2018-11-10T03:27:38.329Z,9.55
2018-11-10T03:30:07.419Z,9.50
2018-11-10T03:32:37.070Z,9.50
2018-11-10T03:35:06.715Z,9.49
2018-11-10T03:37:37.241Z,9.47
2018-11-10T03:40:08.372Z,9.44
2018-11-10T03:42:37.509Z,9.45
2018-11-10T03:45:07.708Z,9.45
2018-11-10T03:47:37.447Z,9.45
2018-11-10T03:50:06.405Z,9.42
2018-11-10T03:52:35.686Z,9.39
2018-11-10T03:55:08.458Z,9.45
2018-11-10T03:57:37.194Z,9.45
2018-11-10T04:00:07.264Z,9.40
2018-11-10T04:02:35.894Z,9.42
2018-11-10T04:05:04.542Z,9.40
2018-11-10T04:07:34.584Z,9.34
2018-11-10T04:10:05.404Z,9.35
2018-11-10T04:12:34.256Z,9.39
2018-11-10T04:15:03.136Z,9.33
2018-11-10T04:17:31.810Z,9.39
2018-11-10T04:20:03.488Z,9.32
2018-11-10T04:22:34.710Z,9.36
2018-11-10T04:25:04.806Z,9.41
2018-11-10T04:27:34.264Z,9.37
2018-11-10T04:30:03.962Z,9.39
2018-11-10T04:32:33.020Z,9.33
2018-11-10T04:35:01.667Z,9.32
2018-11-10T04:37:32.125Z,9.34
2018-11-10T04:40:00.768Z,9.39
2018-11-10T04:42:31.124Z,9.32
2018-11-10T04:45:01.274Z,9.31
2018-11-10T04:47:30.012Z,9.27
2018-11-10T04:50:01.031Z,9.30
2018-11-10T04:52:29.732Z,9.22
2018-11-10T04:54:58.452Z,9.32
2018-11-10T04:57:27.122Z,9.29
2018-11-10T04:59:58.167Z,9.19
2018-11-10T05:02:27.606Z,9.29
2018-11-10T05:04:58.146Z,9.29
2018-11-10T05:07:26.817Z,9.22
2018-11-10T05:09:55.521Z,9.18
2018-11-10T05:12:24.188Z,9.19
2018-11-10T05:14:55.931Z,9.22
2018-11-10T05:17:25.592Z,9.22
2018-11-10T05:19:54.530Z,9.26
2018-11-10T05:22:24.112Z,9.16
2018-11-10T05:24:52.724Z,9.12
2018-11-10T05:27:22.194Z,9.08
2018-11-10T05:29:50.848Z,9.14
2018-11-10T05:32:21.503Z,9.06
2018-11-10T05:34:50.157Z,9.07
2018-11-10T05:37:18.796Z,9.04
2018-11-10T05:39:47.492Z,9.11
2018-11-10T05:42:16.144Z,9.07
2018-11-10T05:44:46.948Z,9.08
2018-11-10T05:47:15.903Z,9.00
2018-11-10T05:49:44.568Z,8.97
2018-11-10T05:52:14.913Z,8.97
2018-11-10T05:54:43.529Z,9.01
2018-11-10T05:57:12.456Z,9.08
2018-11-10T05:59:41.829Z,8.97
2018-11-10T06:02:10.472Z,8.93
2018-11-10T06:04:39.179Z,8.92
2018-11-10T06:07:10.376Z,8.88
2018-11-10T06:09:39.085Z,8.83
2018-11-10T06:12:08.669Z,8.86
2018-11-10T06:14:37.419Z,8.82
2018-11-10T06:17:06.568Z,8.80
2018-11-10T06:19:35.248Z,8.79
2018-11-10T06:22:05.921Z,8.74
2018-11-10T06:24:34.628Z,8.78
2018-11-10T06:27:04.037Z,8.80
2018-11-10T06:29:32.978Z,8.81
2018-11-10T06:32:02.364Z,8.78
2018-11-10T06:34:31.041Z,8.78
2018-11-10T06:36:59.764Z,8.91
2018-11-10T06:39:30.305Z,8.79
2018-11-10T06:42:00.328Z,8.85
2018-11-10T06:44:29.145Z,8.78
2018-11-10T06:46:58.134Z,8.79
2018-11-10T06:49:26.776Z,8.86
2018-11-10T06:51:59.960Z,8.86
2018-11-10T06:54:28.674Z,8.88
2018-11-10T06:56:57.330Z,8.85
2018-11-10T06:59:29.354Z,8.80
2018-11-10T07:01:58.020Z,8.77
2018-11-10T07:04:26.702Z,8.71
2018-11-10T07:06:55.845Z,8.75
2018-11-10T07:09:25.956Z,8.75
2018-11-10T07:11:56.246Z,8.71
2018-11-10T07:14:24.872Z,8.75
2018-11-10T07:16:53.550Z,8.74
2018-11-10T07:19:24.143Z,8.75
2018-11-10T07:21:53.774Z,8.71
2018-11-10T07:24:22.539Z,8.79
2018-11-10T07:26:51.334Z,8.79
2018-11-10T07:29:21.331Z,8.74
2018-11-10T07:31:50.021Z,8.76
2018-11-10T07:34:19.569Z,8.85
2018-11-10T07:36:48.328Z,9.03
2018-11-10T07:39:17.531Z,9.12
2018-11-10T07:41:46.249Z,9.03
2018-11-10T07:44:16.932Z,9.03
2018-11-10T07:46:46.388Z,9.09
2018-11-10T07:49:19.904Z,9.12
2018-11-10T07:51:49.730Z,9.09
2018-11-10T07:54:18.528Z,9.15
2018-11-10T07:56:47.253Z,9.11
2018-11-10T07:59:20.103Z,9.15
2018-11-10T08:01:49.047Z,9.16
2018-11-10T08:04:18.373Z,9.12
2018-11-10T08:06:52.692Z,9.12
2018-11-10T08:09:22.124Z,9.06
2018-11-10T08:11:50.821Z,9.12
2018-11-10T08:14:20.761Z,9.15
2018-11-10T08:16:49.972Z,9.16
2018-11-10T08:19:19.983Z,9.23
2018-11-10T08:21:52.785Z,9.21
2018-11-10T08:24:24.137Z,9.33
2018-11-10T08:26:53.033Z,9.31
2018-11-10T08:29:21.721Z,9.33
2018-11-10T08:31:50.453Z,9.41
2018-11-10T08:34:19.173Z,9.38
2018-11-10T08:36:51.276Z,9.40
2018-11-10T08:39:19.976Z,9.44
2018-11-10T08:41:52.352Z,9.47
2018-11-10T08:44:21.241Z,9.52
2018-11-10T08:46:50.052Z,9.52
2018-11-10T08:49:19.789Z,9.59
2018-11-10T08:51:49.281Z,9.56
2018-11-10T08:54:18.005Z,9.51
2018-11-10T08:56:48.309Z,9.57
2018-11-10T08:59:17.257Z,9.56
2018-11-10T09:01:48.617Z,9.57
2018-11-10T09:04:17.379Z,9.59
2018-11-10T09:06:47.570Z,9.59
2018-11-10T09:09:16.426Z,9.61
2018-11-10T09:11:45.085Z,9.63
2018-11-10T09:14:17.655Z,9.66
2018-11-10T09:16:46.299Z,9.77
2018-11-10T09:19:15.329Z,9.69
2018-11-10T09:21:45.420Z,9.77
2018-11-10T09:24:14.395Z,9.79
2018-11-10T09:26:43.155Z,9.68
2018-11-10T09:29:11.939Z,9.80
2018-11-10T09:31:41.639Z,9.83
2018-11-10T09:34:10.393Z,9.89
2018-11-10T09:36:40.937Z,9.92
2018-11-10T09:39:09.835Z,9.90
2018-11-10T09:41:40.216Z,9.98
2018-11-10T09:44:09.006Z,9.99
2018-11-10T09:46:37.739Z,10.04
2018-11-10T09:49:06.668Z,10.11
2018-11-10T09:51:35.451Z,10.18
2018-11-10T09:54:04.483Z,10.20
2018-11-10T09:56:34.931Z,10.25
2018-11-10T09:59:05.117Z,10.31
2018-11-10T10:01:34.925Z,10.31
2018-11-10T10:04:04.346Z,10.29
2018-11-10T10:06:39.410Z,10.43
2018-11-10T10:09:09.678Z,10.38
2018-11-10T10:11:38.863Z,10.48
2018-11-10T10:14:08.478Z,10.64
2018-11-10T10:16:37.196Z,10.69
2018-11-10T10:19:09.002Z,10.81
2018-11-10T10:21:38.147Z,10.87
2018-11-10T10:24:07.689Z,10.84
2018-11-10T10:26:36.348Z,10.94
2018-11-10T10:29:08.812Z,10.94
2018-11-10T10:31:37.500Z,10.92
2018-11-10T10:34:07.413Z,10.96
2018-11-10T10:36:36.680Z,11.03
2018-11-10T10:39:07.454Z,11.03
2018-11-10T10:41:36.406Z,11.02
2018-11-10T10:44:06.139Z,11.08
2018-11-10T10:46:37.138Z,11.05
2018-11-10T10:49:07.211Z,11.02
2018-11-10T10:51:36.029Z,10.93
2018-11-10T10:54:04.843Z,10.96
2018-11-10T10:56:33.645Z,11.08
2018-11-10T10:59:02.226Z,11.09
2018-11-10T11:01:36.210Z,11.03
2018-11-10T11:06:13.680Z,11.12
2018-11-10T11:08:42.429Z,11.09
2018-11-10T11:11:11.180Z,11.12
2018-11-10T11:13:41.873Z,11.18
2018-11-10T11:16:11.241Z,11.16
2018-11-10T11:18:39.947Z,11.19
2018-11-10T11:21:08.601Z,11.26
2018-11-10T11:23:39.998Z,11.29
2018-11-10T11:26:08.668Z,11.32
2018-11-10T11:28:39.588Z,11.29
2018-11-10T11:31:08.384Z,11.33
2018-11-10T11:33:39.071Z,11.48
2018-11-10T11:36:08.724Z,11.45
2018-11-10T11:38:37.360Z,11.41
2018-11-10T11:41:06.467Z,11.49
2018-11-10T11:43:35.074Z,11.51
2018-11-10T11:46:06.651Z,11.51
2018-11-10T11:48:35.594Z,11.67
2018-11-10T11:51:04.355Z,11.62
2018-11-10T11:53:34.472Z,11.64
2018-11-10T11:56:03.145Z,11.68
2018-11-10T11:58:31.795Z,11.79
2018-11-10T12:01:00.488Z,11.79
2018-11-10T12:03:30.648Z,11.76
2018-11-10T12:06:00.220Z,11.87
2018-11-10T12:08:28.858Z,11.93
2018-11-10T12:10:57.587Z,11.97
2018-11-10T12:13:26.252Z,12.08
2018-11-10T12:15:57.009Z,12.11
2018-11-10T12:18:25.793Z,12.02
2018-11-10T12:20:54.661Z,12.04
2018-11-10T12:23:24.748Z,12.01
2018-11-10T12:25:54.430Z,12.04
2018-11-10T12:28:23.221Z,12.00
2018-11-10T12:30:51.919Z,11.98
2018-11-10T12:33:21.719Z,12.10
2018-11-10T12:35:52.131Z,12.10
2018-11-10T12:38:20.910Z,12.08
2018-11-10T12:40:49.601Z,12.11
2018-11-10T12:43:18.294Z,12.06
2018-11-10T12:45:48.032Z,12.00
2018-11-10T12:48:19.266Z,11.98
2018-11-10T12:50:48.231Z,11.98
2018-11-10T12:53:16.872Z,11.93
2018-11-10T12:55:45.541Z,11.97
2018-11-10T12:58:16.341Z,11.98
2018-11-10T13:00:45.197Z,12.03
2018-11-10T13:03:14.530Z,12.04
2018-11-10T13:05:43.190Z,12.03
2018-11-10T13:08:11.918Z,12.10
2018-11-10T13:10:40.581Z,12.20
2018-11-10T13:13:09.230Z,12.06
2018-11-10T13:15:38.030Z,12.11
2018-11-10T13:18:06.761Z,12.05
2018-11-10T13:20:35.597Z,12.04
2018-11-10T13:23:04.421Z,12.10
2018-11-10T13:25:33.149Z,12.06
2018-11-10T13:28:01.869Z,12.08
2018-11-10T13:30:33.677Z,12.13
2018-11-10T13:33:02.678Z,12.06
2018-11-10T13:35:31.412Z,12.02
2018-11-10T13:38:00.134Z,12.05
2018-11-10T13:40:28.859Z,12.11
2018-11-10T13:42:57.583Z,12.19
2018-11-10T13:45:26.242Z,12.15
2018-11-10T13:47:56.370Z,12.15
2018-11-10T13:50:25.122Z,12.11
2018-11-10T13:52:55.620Z,12.07
2018-11-10T13:55:23.991Z,12.10
2018-11-10T13:57:52.680Z,12.18
2018-11-10T14:00:21.379Z,12.02
2018-11-10T14:02:50.097Z,12.04
2018-11-10T14:05:19.992Z,12.04
2018-11-10T14:07:48.809Z,11.99
2018-11-10T14:10:20.133Z,12.01
2018-11-10T14:12:49.468Z,12.00
2018-11-10T14:15:18.105Z,12.02
2018-11-10T14:17:47.942Z,11.90
2018-11-10T14:20:17.386Z,11.94
2018-11-10T14:22:50.317Z,11.82
2018-11-10T14:25:19.320Z,11.79
2018-11-10T14:27:48.024Z,11.76
2018-11-10T14:30:19.179Z,11.74
2018-11-10T14:32:48.190Z,11.76
2018-11-10T14:35:18.847Z,11.78
2018-11-10T14:37:47.936Z,11.74
2018-11-10T14:40:17.919Z,11.74
2018-11-10T14:42:48.490Z,11.64
2018-11-10T14:45:18.551Z,11.63
2018-11-10T14:47:47.653Z,11.69
2018-11-10T14:50:17.145Z,11.74
2018-11-10T14:52:46.948Z,11.70
2018-11-10T14:55:16.980Z,11.63
2018-11-10T14:57:45.737Z,11.72
2018-11-10T15:00:18.821Z,11.64
2018-11-10T15:02:48.014Z,11.52
2018-11-10T15:05:16.664Z,11.48
2018-11-10T15:07:46.818Z,11.55
2018-11-10T15:10:17.100Z,11.44
2018-11-10T15:12:46.081Z,11.42
2018-11-10T15:15:15.879Z,11.53
2018-11-10T15:17:45.532Z,11.44
2018-11-10T15:20:16.943Z,11.38
2018-11-10T15:22:45.673Z,11.40
2018-11-10T15:25:15.750Z,11.41
2018-11-10T15:27:44.413Z,11.34
2018-11-10T15:30:16.394Z,11.45
2018-11-10T15:32:45.854Z,11.27
2018-11-10T15:35:15.832Z,11.37
2018-11-10T15:37:45.923Z,11.33
2018-11-10T15:40:16.826Z,11.30
2018-11-10T15:42:46.008Z,11.34
2018-11-10T15:45:15.697Z,11.27
2018-11-10T15:47:44.778Z,11.24
2018-11-10T15:50:14.606Z,11.18
2018-11-10T15:52:44.172Z,11.15
2018-11-10T15:55:13.595Z,11.16
2018-11-10T15:57:42.556Z,11.20
2018-11-10T16:00:14.988Z,11.23
2018-11-10T16:02:48.336Z,11.16
2018-11-10T16:05:17.383Z,11.22
2018-11-10T16:07:46.044Z,11.13
2018-11-10T16:10:14.751Z,11.09
2018-11-10T16:12:43.428Z,11.09
2018-11-10T16:15:15.277Z,11.11
2018-11-10T16:17:44.050Z,11.08
2018-11-10T16:20:17.925Z,11.08
2018-11-10T16:22:48.956Z,11.09
2018-11-10T16:25:18.221Z,11.19
2018-11-10T16:27:47.112Z,11.15
2018-11-10T16:30:17.510Z,11.10
2018-11-10T16:32:46.709Z,11.05
2018-11-10T16:35:16.884Z,11.05
2018-11-10T16:37:46.873Z,10.99
2018-11-10T16:40:17.907Z,11.01
2018-11-10T16:42:47.268Z,11.05
2018-11-10T16:45:18.766Z,11.01
2018-11-10T16:47:47.418Z,11.02
2018-11-10T16:50:17.940Z,11.04
2018-11-10T16:52:46.842Z,11.04
2018-11-10T16:55:15.707Z,11.05
2018-11-10T16:57:45.344Z,10.99
2018-11-10T17:00:17.106Z,11.03
2018-11-10T17:02:48.226Z,11.00
2018-11-10T17:05:16.952Z,10.97
2018-11-10T17:07:46.652Z,10.99
2018-11-10T17:10:16.757Z,11.02
2018-11-10T17:12:45.476Z,11.01
2018-11-10T17:15:16.630Z,11.00
2018-11-10T17:17:45.477Z,11.07
2018-11-10T17:20:15.598Z,10.98
2018-11-10T17:22:44.531Z,10.95
2018-11-10T17:25:14.048Z,10.92
2018-11-10T17:27:43.144Z,10.94
2018-11-10T17:30:20.935Z,10.89
2018-11-10T17:32:50.469Z,10.89
2018-11-10T17:35:20.324Z,10.87
2018-11-10T17:37:50.299Z,10.92
2018-11-10T17:40:20.239Z,10.92
2018-11-10T17:42:48.931Z,10.89
2018-11-10T17:45:19.160Z,10.93
2018-11-10T17:47:48.297Z,10.88
2018-11-10T17:50:17.834Z,10.88
2018-11-10T17:52:48.039Z,10.81
2018-11-10T17:55:17.431Z,10.81
2018-11-10T17:57:46.596Z,10.79
2018-11-10T18:00:15.258Z,10.83
2018-11-10T18:02:44.494Z,10.90
2018-11-10T18:05:14.757Z,10.85
2018-11-10T18:07:43.402Z,10.83
2018-11-10T18:10:13.802Z,10.85
2018-11-10T18:12:43.200Z,10.85
2018-11-10T18:15:14.665Z,10.81
2018-11-10T18:17:43.713Z,10.82
2018-11-10T18:20:13.774Z,10.81
2018-11-10T18:22:42.762Z,10.79
2018-11-10T18:25:12.950Z,10.82
2018-11-10T18:27:41.622Z,10.79
2018-11-10T18:30:12.962Z,10.94
2018-11-10T18:32:41.808Z,10.90
2018-11-10T18:35:11.182Z,10.85
2018-11-10T18:37:41.184Z,10.82
2018-11-10T18:40:09.998Z,10.78
2018-11-10T18:42:45.268Z,10.74
2018-11-10T18:45:14.010Z,10.80
2018-11-10T18:47:43.566Z,10.75
2018-11-10T18:50:17.729Z,10.82
2018-11-10T18:52:47.681Z,10.75
2018-11-10T18:55:17.334Z,10.72
2018-11-10T18:57:46.444Z,10.71
2018-11-10T19:00:16.331Z,10.74
2018-11-10T19:02:45.146Z,10.84
2018-11-10T19:05:15.928Z,10.79
2018-11-10T19:07:45.198Z,10.80
2018-11-10T19:10:16.866Z,10.80
2018-11-10T19:12:45.580Z,10.73
2018-11-10T19:15:21.542Z,10.75
2018-11-10T19:17:50.994Z,10.74
2018-11-10T19:20:19.824Z,10.70
2018-11-10T19:22:48.592Z,10.70
2018-11-10T19:25:23.320Z,10.70
2018-11-10T19:27:53.439Z,10.72
2018-11-10T19:30:22.198Z,10.71
2018-11-10T19:32:51.384Z,10.72
2018-11-10T19:35:20.412Z,10.74
2018-11-10T19:37:49.554Z,10.81
2018-11-10T19:40:18.274Z,10.74
2018-11-10T19:42:47.426Z,10.82
2018-11-10T19:45:16.146Z,10.83
2018-11-10T19:47:47.550Z,10.86
2018-11-10T19:50:17.186Z,10.77
2018-11-10T19:52:47.324Z,10.71
2018-11-10T19:55:17.212Z,10.73
2018-11-10T19:57:47.307Z,10.71
2018-11-10T20:00:21.090Z,10.70
2018-11-10T20:02:51.527Z,10.73
2018-11-10T20:05:20.208Z,10.68
2018-11-10T20:07:50.343Z,10.67
2018-11-10T20:10:19.276Z,10.74
2018-11-10T20:12:48.238Z,10.73
2018-11-10T20:15:17.691Z,10.75
2018-11-10T20:17:47.788Z,10.75
2018-11-10T20:20:17.799Z,10.71
2018-11-10T20:22:46.486Z,10.80
2018-11-10T20:25:20.834Z,10.85
2018-11-10T20:27:50.231Z,10.80
2018-11-10T20:30:20.117Z,10.85
2018-11-10T20:32:54.034Z,10.85
2018-11-10T20:35:22.667Z,10.81
2018-11-10T20:37:52.622Z,10.78
2018-11-10T20:40:21.286Z,10.82
2018-11-10T20:42:51.882Z,10.87
2018-11-10T20:45:21.608Z,10.81
2018-11-10T20:47:51.321Z,10.96
2018-11-10T20:50:20.115Z,10.86
2018-11-10T20:52:49.946Z,10.88
2018-11-10T20:55:19.429Z,10.92
2018-11-10T20:57:48.197Z,10.97
2018-11-10T21:00:20.460Z,11.01
2018-11-10T21:02:48.963Z,11.00
2018-11-10T21:05:18.615Z,10.98
2018-11-10T21:07:47.313Z,10.99
2018-11-10T21:10:18.871Z,10.99
2018-11-10T21:12:48.394Z,11.00
2018-11-10T21:15:17.692Z,11.05
2018-11-10T21:17:46.543Z,11.07
2018-11-10T21:20:17.503Z,11.09
2018-11-10T21:22:46.169Z,11.08
2018-11-10T21:25:16.280Z,11.12
2018-11-10T21:27:47.336Z,11.11
2018-11-10T21:30:17.388Z,11.14
2018-11-10T21:32:49.493Z,11.20
2018-11-10T21:35:22.761Z,11.25
2018-11-10T21:37:52.827Z,11.20
2018-11-10T21:40:21.916Z,11.15
2018-11-10T21:42:51.787Z,11.17
2018-11-10T21:45:20.445Z,11.23
2018-11-10T21:47:51.116Z,11.14
2018-11-10T21:50:21.153Z,11.13
2018-11-10T21:52:50.534Z,11.16
2018-11-10T21:55:20.084Z,11.25
2018-11-10T21:57:49.895Z,11.32
2018-11-10T22:00:20.187Z,11.23
2018-11-10T22:02:53.517Z,11.19
2018-11-10T22:05:22.298Z,11.22
2018-11-10T22:07:51.031Z,11.20
2018-11-10T22:10:20.391Z,11.22
2018-11-10T22:12:51.113Z,11.20
2018-11-10T22:15:21.234Z,11.24
2018-11-10T22:17:50.208Z,11.22
2018-11-10T22:20:21.618Z,11.33
2018-11-10T22:22:50.484Z,11.32
2018-11-10T22:25:19.212Z,11.29
2018-11-10T22:27:50.173Z,11.24
2018-11-10T22:30:19.888Z,11.27
2018-11-10T22:32:48.983Z,11.29
2018-11-10T22:35:17.857Z,11.27
2018-11-10T22:37:46.794Z,11.28
2018-11-10T22:40:17.877Z,11.27
2018-11-10T22:42:46.781Z,11.28
2018-11-10T22:45:16.749Z,11.31
2018-11-10T22:47:45.486Z,11.44
2018-11-10T22:50:15.769Z,11.39
2018-11-10T22:52:44.727Z,11.36
2018-11-10T22:55:15.802Z,11.36
2018-11-10T22:57:44.410Z,11.31
2018-11-10T23:00:30.877Z,11.32
2018-11-10T23:03:00.691Z,11.47
2018-11-10T23:05:30.168Z,11.33
2018-11-10T23:07:59.768Z,11.28
2018-11-10T23:10:28.488Z,11.36
2018-11-10T23:12:58.051Z,11.44
2018-11-10T23:15:26.925Z,11.41
2018-11-10T23:17:56.937Z,11.36
2018-11-10T23:20:25.615Z,11.34
2018-11-10T23:22:54.347Z,11.33
2018-11-10T23:25:23.080Z,11.31
2018-11-10T23:27:51.835Z,11.38
2018-11-10T23:30:22.652Z,11.37
2018-11-10T23:32:51.312Z,11.32
2018-11-10T23:35:21.771Z,11.40
2018-11-10T23:37:50.598Z,11.37
2018-11-10T23:40:23.943Z,11.41
2018-11-10T23:42:52.677Z,11.43
2018-11-10T23:45:21.746Z,11.31
2018-11-10T23:47:50.533Z,11.22
2018-11-10T23:50:20.525Z,11.24
2018-11-10T23:52:49.213Z,11.24
2018-11-10T23:55:18.189Z,11.22
2018-11-10T23:57:46.980Z,11.25
